Terminal Aerodrome Forecast
Issued by NWS

Home | Current Version | Previous Version | Text Only | Print | Product List | Glossary On
Versions: 1 2 3 4 5 6 7 8 9 10 11 12 13 14 15 16 17 18 19 20 21 22 23 24 25 26 27 28 29 30 31 32 33 34 35 36 37 38 39 40 41 42 43
000
FTUS43 KDLH 291300 AAB
TAFHYR
TAF AMD
KHYR 291347Z 2914/3012 17007KT P6SM VCSH SCT015 OVC050
      TEMPO 2915/2918 -RA SCT008 BKN025
     FM291800 27007KT 6SM -RA VCTS BKN025 OVC040CB
      TEMPO 2918/2922 33015KT 2SM -TSRA BKN009 BKN018CB
     FM292200 35012KT P6SM VCSH SCT010 BKN020
     FM300200 36008KT P6SM SCT040=

USA.gov is the U.S. government's official web portal to all federal, state and local government web resources and services.